EGTE/EXT METAR and TAF weather

Enter ICAO airport designator
Station Type Date Time Source
EGTE METAR 2022/06/30 01:20 UTC NOAA

EGTE 300120Z VRB01KT 9999 FEW025 11/10 Q1011


Station Type Date Time Source
EGTE Decoded METAR 2022/06/30 01:20 UTC NOAA

Exeter Airport, United Kingdom (EGTE) 50-44N 003-25W
Jun 29, 2022 - 09:20 PM EDT / 2022.06.30 0120 UTC
Wind: Variable at 1 MPH (1 KT):0
Visibility: greater than 7 mile(s):0
Sky conditions: mostly clear
Temperature: 51 F (11 C)
Dew Point: 50 F (10 C)
Relative Humidity: 93%
Pressure (altimeter): 29.85 in. Hg (1011 hPa)
ob: EGTE 300120Z VRB01KT 9999 FEW025 11/10 Q1011
cycle: 1

Station Type Date Time Source
EGTE TAF 2012/04/19 12:15 UTC NOAA

TAF TAF EGTE 191401Z 1912/1924 31016KT 9999 SCT030 SCT035 PROB40
TEMPO 1915/1918 7000 SHRA BKN014

Example: see airport list